Portland, Arkansas
Current Conditions -  °F | °C
As of 1:53 AM on Saturday 22 Nov 2014 (Local Time) from KLLQ Reporting Station
Overcast Overcast  
Wind Chill: 13°   Ceiling: 6000
Heat Index: 13°   Visibility: 10mi
Dew Point:   Wind: 6mph
Humidity: 75%   Direction: 180°S
Pressure: 30.25"   Gusts: NA
Location:  33.24°N, 91.51°W
Report Text: KLLQ 220753Z AUTO 18005KT 10SM OVC060 13/09 A3025 RMK AO2 RAB02E11B41E53 SLP243 P0000 T01330089
Loading
Personal Weather Stations






























Interactive Weather Map New forecast layout! Learn more

10-Day Weather Forecast

Advertisements
Track Severe Weather on mobile